sensor_id;sensor_type;location;lat;lon;timestamp;P1;durP1;ratioP1;P2;durP2;ratioP2
34960;SDS011;30789;52.030;7.110;2022-07-04T00:00:20;2.70;;;2.50;;
34960;SDS011;30789;52.030;7.110;2022-07-04T00:02:47;4.80;;;2.47;;
34960;SDS011;30789;52.030;7.110;2022-07-04T00:05:14;3.22;;;2.50;;
34960;SDS011;30789;52.030;7.110;2022-07-04T00:07:41;2.53;;;1.88;;
34960;SDS011;30789;52.030;7.110;2022-07-04T00:10:10;2.72;;;2.20;;
34960;SDS011;30789;52.030;7.110;2022-07-04T00:12:37;2.28;;;2.05;;
34960;SDS011;30789;52.030;7.110;2022-07-04T00:15:06;3.53;;;2.60;;
34960;SDS011;30789;52.030;7.110;2022-07-04T00:17:34;3.58;;;2.60;;
34960;SDS011;30789;52.030;7.110;2022-07-04T00:20:01;4.28;;;2.10;;
34960;SDS011;30789;52.030;7.110;2022-07-04T00:22:29;2.97;;;2.40;;
34960;SDS011;30789;52.030;7.110;2022-07-04T00:24:55;3.35;;;2.50;;
34960;SDS011;30789;52.030;7.110;2022-07-04T00:27:22;2.63;;;2.42;;
34960;SDS011;30789;52.030;7.110;2022-07-04T00:29:49;3.85;;;2.60;;
34960;SDS011;30789;52.030;7.110;2022-07-04T00:32:17;3.38;;;2.45;;
34960;SDS011;30789;52.030;7.110;2022-07-04T00:34:44;3.50;;;2.47;;
34960;SDS011;30789;52.030;7.110;2022-07-04T00:37:10;5.05;;;2.80;;
34960;SDS011;30789;52.030;7.110;2022-07-04T00:39:37;4.25;;;2.45;;
34960;SDS011;30789;52.030;7.110;2022-07-04T00:42:04;3.83;;;2.40;;
34960;SDS011;30789;52.030;7.110;2022-07-04T00:44:31;2.65;;;2.28;;
34960;SDS011;30789;52.030;7.110;2022-07-04T00:47:00;4.18;;;2.67;;
34960;SDS011;30789;52.030;7.110;2022-07-04T00:49:28;4.13;;;3.00;;
34960;SDS011;30789;52.030;7.110;2022-07-04T00:51:54;3.22;;;2.67;;
34960;SDS011;30789;52.030;7.110;2022-07-04T00:54:24;4.32;;;2.97;;
34960;SDS011;30789;52.030;7.110;2022-07-04T00:56:52;3.08;;;2.75;;
34960;SDS011;30789;52.030;7.110;2022-07-04T00:59:20;3.58;;;2.53;;
34960;SDS011;30789;52.030;7.110;2022-07-04T01:01:47;2.95;;;2.65;;
34960;SDS011;30789;52.030;7.110;2022-07-04T01:04:14;4.03;;;3.03;;
34960;SDS011;30789;52.030;7.110;2022-07-04T01:06:42;6.25;;;2.88;;
34960;SDS011;30789;52.030;7.110;2022-07-04T01:09:09;5.20;;;2.80;;
34960;SDS011;30789;52.030;7.110;2022-07-04T01:11:36;4.07;;;3.40;;
34960;SDS011;30789;52.030;7.110;2022-07-04T01:14:03;2.72;;;2.40;;
34960;SDS011;30789;52.030;7.110;2022-07-04T01:16:31;5.38;;;3.55;;
34960;SDS011;30789;52.030;7.110;2022-07-04T01:18:57;5.18;;;3.40;;
34960;SDS011;30789;52.030;7.110;2022-07-04T01:21:25;4.85;;;2.70;;
34960;SDS011;30789;52.030;7.110;2022-07-04T01:23:52;4.18;;;2.63;;
34960;SDS011;30789;52.030;7.110;2022-07-04T01:26:18;4.18;;;3.00;;
34960;SDS011;30789;52.030;7.110;2022-07-04T01:28:46;3.33;;;3.03;;
34960;SDS011;30789;52.030;7.110;2022-07-04T01:31:12;3.78;;;3.08;;
34960;SDS011;30789;52.030;7.110;2022-07-04T01:33:39;5.07;;;3.22;;
34960;SDS011;30789;52.030;7.110;2022-07-04T01:36:05;4.90;;;3.03;;
34960;SDS011;30789;52.030;7.110;2022-07-04T01:38:33;4.10;;;3.30;;
34960;SDS011;30789;52.030;7.110;2022-07-04T01:41:00;3.80;;;3.40;;
34960;SDS011;30789;52.030;7.110;2022-07-04T01:43:26;4.55;;;3.55;;
34960;SDS011;30789;52.030;7.110;2022-07-04T01:45:53;8.25;;;3.67;;
34960;SDS011;30789;52.030;7.110;2022-07-04T01:48:19;3.42;;;3.13;;
34960;SDS011;30789;52.030;7.110;2022-07-04T01:50:46;7.22;;;3.25;;
34960;SDS011;30789;52.030;7.110;2022-07-04T01:53:12;3.65;;;3.35;;
34960;SDS011;30789;52.030;7.110;2022-07-04T01:55:40;4.75;;;3.45;;
34960;SDS011;30789;52.030;7.110;2022-07-04T01:58:06;4.82;;;3.35;;
34960;SDS011;30789;52.030;7.110;2022-07-04T02:00:33;3.45;;;3.15;;
34960;SDS011;30789;52.030;7.110;2022-07-04T02:03:19;3.55;;;3.25;;
34960;SDS011;30789;52.030;7.110;2022-07-04T02:05:46;5.40;;;3.58;;
34960;SDS011;30789;52.030;7.110;2022-07-04T02:08:12;3.60;;;3.25;;
34960;SDS011;30789;52.030;7.110;2022-07-04T02:10:40;3.85;;;3.42;;
34960;SDS011;30789;52.030;7.110;2022-07-04T02:13:07;4.93;;;3.40;;
34960;SDS011;30789;52.030;7.110;2022-07-04T02:15:33;3.47;;;3.15;;
34960;SDS011;30789;52.030;7.110;2022-07-04T02:18:01;4.40;;;3.58;;
34960;SDS011;30789;52.030;7.110;2022-07-04T02:20:28;4.68;;;3.53;;
34960;SDS011;30789;52.030;7.110;2022-07-04T02:22:55;3.80;;;3.38;;
34960;SDS011;30789;52.030;7.110;2022-07-04T02:25:22;6.18;;;3.80;;
34960;SDS011;30789;52.030;7.110;2022-07-04T02:27:50;5.68;;;3.55;;
34960;SDS011;30789;52.030;7.110;2022-07-04T02:30:16;4.55;;;3.58;;
34960;SDS011;30789;52.030;7.110;2022-07-04T02:32:43;6.70;;;4.13;;
34960;SDS011;30789;52.030;7.110;2022-07-04T02:35:10;5.55;;;4.38;;
34960;SDS011;30789;52.030;7.110;2022-07-04T02:37:36;4.05;;;3.72;;
34960;SDS011;30789;52.030;7.110;2022-07-04T02:40:04;4.45;;;3.65;;
34960;SDS011;30789;52.030;7.110;2022-07-04T02:42:32;4.78;;;3.65;;
34960;SDS011;30789;52.030;7.110;2022-07-04T02:45:01;4.20;;;3.70;;
34960;SDS011;30789;52.030;7.110;2022-07-04T02:47:27;4.63;;;4.00;;
34960;SDS011;30789;52.030;7.110;2022-07-04T02:49:54;4.07;;;3.55;;
34960;SDS011;30789;52.030;7.110;2022-07-04T02:52:21;4.80;;;3.92;;
34960;SDS011;30789;52.030;7.110;2022-07-04T02:54:47;3.30;;;3.05;;
34960;SDS011;30789;52.030;7.110;2022-07-04T02:57:14;5.30;;;3.40;;
34960;SDS011;30789;52.030;7.110;2022-07-04T02:59:41;4.57;;;3.75;;
34960;SDS011;30789;52.030;7.110;2022-07-04T03:02:09;4.30;;;3.60;;
34960;SDS011;30789;52.030;7.110;2022-07-04T03:04:36;3.88;;;3.22;;
34960;SDS011;30789;52.030;7.110;2022-07-04T03:07:05;5.03;;;3.90;;
34960;SDS011;30789;52.030;7.110;2022-07-04T03:09:31;4.75;;;3.80;;
34960;SDS011;30789;52.030;7.110;2022-07-04T03:11:58;4.43;;;4.03;;
34960;SDS011;30789;52.030;7.110;2022-07-04T03:14:24;5.97;;;3.80;;
34960;SDS011;30789;52.030;7.110;2022-07-04T03:16:51;5.18;;;4.07;;
34960;SDS011;30789;52.030;7.110;2022-07-04T03:19:19;4.03;;;3.72;;
34960;SDS011;30789;52.030;7.110;2022-07-04T03:21:45;4.85;;;4.30;;
34960;SDS011;30789;52.030;7.110;2022-07-04T03:24:11;4.40;;;3.45;;
34960;SDS011;30789;52.030;7.110;2022-07-04T03:26:38;5.05;;;3.65;;
34960;SDS011;30789;52.030;7.110;2022-07-04T03:29:04;5.50;;;4.00;;
34960;SDS011;30789;52.030;7.110;2022-07-04T03:31:31;4.80;;;3.63;;
34960;SDS011;30789;52.030;7.110;2022-07-04T03:33:57;4.72;;;3.90;;
34960;SDS011;30789;52.030;7.110;2022-07-04T03:36:25;5.57;;;4.15;;
34960;SDS011;30789;52.030;7.110;2022-07-04T03:38:52;4.40;;;4.00;;
34960;SDS011;30789;52.030;7.110;2022-07-04T03:41:18;7.68;;;4.40;;
34960;SDS011;30789;52.030;7.110;2022-07-04T03:43:45;4.38;;;3.95;;
34960;SDS011;30789;52.030;7.110;2022-07-04T03:46:11;5.57;;;4.22;;
34960;SDS011;30789;52.030;7.110;2022-07-04T03:48:38;5.68;;;4.38;;
34960;SDS011;30789;52.030;7.110;2022-07-04T03:51:04;5.07;;;3.55;;
34960;SDS011;30789;52.030;7.110;2022-07-04T03:53:32;4.07;;;3.67;;
34960;SDS011;30789;52.030;7.110;2022-07-04T03:55:58;6.43;;;3.92;;
34960;SDS011;30789;52.030;7.110;2022-07-04T03:58:25;5.10;;;4.32;;
34960;SDS011;30789;52.030;7.110;2022-07-04T04:00:51;4.65;;;3.85;;
34960;SDS011;30789;52.030;7.110;2022-07-04T04:03:18;5.20;;;4.28;;
34960;SDS011;30789;52.030;7.110;2022-07-04T04:06:02;4.95;;;4.50;;
34960;SDS011;30789;52.030;7.110;2022-07-04T04:08:29;4.82;;;4.05;;
34960;SDS011;30789;52.030;7.110;2022-07-04T04:10:57;7.78;;;4.43;;
34960;SDS011;30789;52.030;7.110;2022-07-04T04:13:23;5.55;;;4.38;;
34960;SDS011;30789;52.030;7.110;2022-07-04T04:15:50;7.13;;;4.32;;
34960;SDS011;30789;52.030;7.110;2022-07-04T04:18:16;5.53;;;4.57;;
34960;SDS011;30789;52.030;7.110;2022-07-04T04:20:43;4.55;;;4.15;;
34960;SDS011;30789;52.030;7.110;2022-07-04T04:23:09;7.88;;;4.38;;
34960;SDS011;30789;52.030;7.110;2022-07-04T04:25:36;10.00;;;4.45;;
34960;SDS011;30789;52.030;7.110;2022-07-04T04:28:04;5.00;;;4.40;;
34960;SDS011;30789;52.030;7.110;2022-07-04T04:30:30;5.97;;;4.60;;
34960;SDS011;30789;52.030;7.110;2022-07-04T04:32:57;5.32;;;4.53;;
34960;SDS011;30789;52.030;7.110;2022-07-04T04:35:23;5.40;;;4.35;;
34960;SDS011;30789;52.030;7.110;2022-07-04T04:37:50;6.75;;;4.88;;
34960;SDS011;30789;52.030;7.110;2022-07-04T04:40:16;6.85;;;5.20;;
34960;SDS011;30789;52.030;7.110;2022-07-04T04:42:43;5.30;;;4.80;;
34960;SDS011;30789;52.030;7.110;2022-07-04T04:45:11;7.43;;;5.45;;
34960;SDS011;30789;52.030;7.110;2022-07-04T04:47:38;8.35;;;5.60;;
34960;SDS011;30789;52.030;7.110;2022-07-04T04:50:06;6.53;;;5.15;;
34960;SDS011;30789;52.030;7.110;2022-07-04T04:52:36;6.85;;;4.72;;
34960;SDS011;30789;52.030;7.110;2022-07-04T04:55:03;7.15;;;4.72;;
34960;SDS011;30789;52.030;7.110;2022-07-04T04:57:30;5.82;;;5.22;;
34960;SDS011;30789;52.030;7.110;2022-07-04T04:59:57;7.22;;;5.30;;
34960;SDS011;30789;52.030;7.110;2022-07-04T05:02:25;6.55;;;5.72;;
34960;SDS011;30789;52.030;7.110;2022-07-04T05:04:51;6.18;;;4.93;;
34960;SDS011;30789;52.030;7.110;2022-07-04T05:07:18;8.77;;;5.53;;
34960;SDS011;30789;52.030;7.110;2022-07-04T05:09:45;6.57;;;5.47;;
34960;SDS011;30789;52.030;7.110;2022-07-04T05:12:11;8.05;;;5.63;;
34960;SDS011;30789;52.030;7.110;2022-07-04T05:14:38;6.22;;;5.60;;
34960;SDS011;30789;52.030;7.110;2022-07-04T05:17:05;6.35;;;5.13;;
34960;SDS011;30789;52.030;7.110;2022-07-04T05:19:32;6.30;;;5.32;;
34960;SDS011;30789;52.030;7.110;2022-07-04T05:21:59;7.90;;;5.55;;
34960;SDS011;30789;52.030;7.110;2022-07-04T05:24:25;6.47;;;4.97;;
34960;SDS011;30789;52.030;7.110;2022-07-04T05:26:52;10.35;;;5.60;;
34960;SDS011;30789;52.030;7.110;2022-07-04T05:29:18;7.32;;;5.35;;
34960;SDS011;30789;52.030;7.110;2022-07-04T05:31:45;7.55;;;5.50;;
34960;SDS011;30789;52.030;7.110;2022-07-04T05:34:11;9.00;;;5.65;;
34960;SDS011;30789;52.030;7.110;2022-07-04T05:36:39;8.00;;;6.00;;
34960;SDS011;30789;52.030;7.110;2022-07-04T05:39:06;10.07;;;5.65;;
34960;SDS011;30789;52.030;7.110;2022-07-04T05:41:32;8.90;;;5.88;;
34960;SDS011;30789;52.030;7.110;2022-07-04T05:43:58;8.45;;;6.28;;
34960;SDS011;30789;52.030;7.110;2022-07-04T05:46:25;9.80;;;5.78;;
34960;SDS011;30789;52.030;7.110;2022-07-04T05:48:52;10.75;;;6.38;;
34960;SDS011;30789;52.030;7.110;2022-07-04T05:51:18;8.40;;;6.22;;
34960;SDS011;30789;52.030;7.110;2022-07-04T05:53:46;7.78;;;6.28;;
34960;SDS011;30789;52.030;7.110;2022-07-04T05:56:12;7.68;;;6.57;;
34960;SDS011;30789;52.030;7.110;2022-07-04T05:58:39;10.05;;;6.50;;
34960;SDS011;30789;52.030;7.110;2022-07-04T06:01:06;12.63;;;6.90;;
34960;SDS011;30789;52.030;7.110;2022-07-04T06:03:34;8.07;;;5.50;;
34960;SDS011;30789;52.030;7.110;2022-07-04T06:06:01;11.85;;;5.55;;
34960;SDS011;30789;52.030;7.110;2022-07-04T06:08:28;7.75;;;5.55;;
34960;SDS011;30789;52.030;7.110;2022-07-04T06:10:56;8.25;;;5.93;;
34960;SDS011;30789;52.030;7.110;2022-07-04T06:13:23;6.57;;;5.20;;
34960;SDS011;30789;52.030;7.110;2022-07-04T06:15:50;5.72;;;5.03;;
34960;SDS011;30789;52.030;7.110;2022-07-04T06:18:17;8.90;;;5.32;;
34960;SDS011;30789;52.030;7.110;2022-07-04T06:20:43;8.27;;;5.03;;
34960;SDS011;30789;52.030;7.110;2022-07-04T06:23:10;7.45;;;5.00;;
34960;SDS011;30789;52.030;7.110;2022-07-04T06:25:36;6.43;;;5.35;;
34960;SDS011;30789;52.030;7.110;2022-07-04T06:28:04;6.60;;;5.25;;
34960;SDS011;30789;52.030;7.110;2022-07-04T06:30:31;11.43;;;4.72;;
34960;SDS011;30789;52.030;7.110;2022-07-04T06:32:58;9.15;;;5.70;;
34960;SDS011;30789;52.030;7.110;2022-07-04T06:35:25;6.97;;;5.53;;
34960;SDS011;30789;52.030;7.110;2022-07-04T06:38:11;7.97;;;5.35;;
34960;SDS011;30789;52.030;7.110;2022-07-04T06:40:40;5.65;;;4.50;;
34960;SDS011;30789;52.030;7.110;2022-07-04T06:43:08;6.93;;;4.53;;
34960;SDS011;30789;52.030;7.110;2022-07-04T06:45:35;4.97;;;3.30;;
34960;SDS011;30789;52.030;7.110;2022-07-04T06:48:03;5.03;;;3.45;;
34960;SDS011;30789;52.030;7.110;2022-07-04T06:50:30;6.18;;;3.40;;
34960;SDS011;30789;52.030;7.110;2022-07-04T06:52:58;4.38;;;3.25;;
34960;SDS011;30789;52.030;7.110;2022-07-04T06:55:37;3.00;;;2.70;;
34960;SDS011;30789;52.030;7.110;2022-07-04T06:58:04;4.35;;;3.25;;
34960;SDS011;30789;52.030;7.110;2022-07-04T07:00:33;4.60;;;3.33;;
34960;SDS011;30789;52.030;7.110;2022-07-04T07:03:00;8.10;;;3.40;;
34960;SDS011;30789;52.030;7.110;2022-07-04T07:05:28;6.65;;;3.20;;
34960;SDS011;30789;52.030;7.110;2022-07-04T07:07:55;4.72;;;2.28;;
34960;SDS011;30789;52.030;7.110;2022-07-04T07:10:21;4.93;;;2.40;;
34960;SDS011;30789;52.030;7.110;2022-07-04T07:12:48;3.25;;;2.22;;
34960;SDS011;30789;52.030;7.110;2022-07-04T07:15:15;6.00;;;2.20;;
34960;SDS011;30789;52.030;7.110;2022-07-04T07:17:45;2.53;;;2.00;;
34960;SDS011;30789;52.030;7.110;2022-07-04T07:20:11;4.13;;;1.73;;
34960;SDS011;30789;52.030;7.110;2022-07-04T07:22:38;5.90;;;1.60;;
34960;SDS011;30789;52.030;7.110;2022-07-04T07:25:05;2.60;;;1.48;;
34960;SDS011;30789;52.030;7.110;2022-07-04T07:27:32;3.63;;;2.17;;
34960;SDS011;30789;52.030;7.110;2022-07-04T07:29:58;3.03;;;2.13;;
34960;SDS011;30789;52.030;7.110;2022-07-04T07:32:25;4.22;;;2.22;;
34960;SDS011;30789;52.030;7.110;2022-07-04T07:34:53;3.25;;;2.55;;
34960;SDS011;30789;52.030;7.110;2022-07-04T07:37:19;5.53;;;2.10;;
34960;SDS011;30789;52.030;7.110;2022-07-04T07:39:47;3.30;;;1.90;;
34960;SDS011;30789;52.030;7.110;2022-07-04T07:42:14;4.22;;;1.67;;
34960;SDS011;30789;52.030;7.110;2022-07-04T07:44:40;4.07;;;2.03;;
34960;SDS011;30789;52.030;7.110;2022-07-04T07:47:07;4.93;;;2.05;;
34960;SDS011;30789;52.030;7.110;2022-07-04T07:49:33;3.75;;;1.55;;
34960;SDS011;30789;52.030;7.110;2022-07-04T07:52:01;1.63;;;1.52;;
34960;SDS011;30789;52.030;7.110;2022-07-04T07:54:28;2.60;;;1.95;;
34960;SDS011;30789;52.030;7.110;2022-07-04T07:56:54;2.35;;;1.60;;
34960;SDS011;30789;52.030;7.110;2022-07-04T07:59:21;4.28;;;1.60;;
34960;SDS011;30789;52.030;7.110;2022-07-04T08:01:47;2.00;;;1.17;;
34960;SDS011;30789;52.030;7.110;2022-07-04T08:04:14;1.40;;;1.20;;
34960;SDS011;30789;52.030;7.110;2022-07-04T08:06:58;2.40;;;1.73;;
34960;SDS011;30789;52.030;7.110;2022-07-04T08:09:26;4.05;;;1.80;;
34960;SDS011;30789;52.030;7.110;2022-07-04T08:11:52;2.05;;;1.30;;
34960;SDS011;30789;52.030;7.110;2022-07-04T08:14:19;5.90;;;1.25;;
34960;SDS011;30789;52.030;7.110;2022-07-04T08:16:46;1.52;;;0.90;;
34960;SDS011;30789;52.030;7.110;2022-07-04T08:19:12;3.97;;;1.33;;
34960;SDS011;30789;52.030;7.110;2022-07-04T08:21:39;3.80;;;1.45;;
34960;SDS011;30789;52.030;7.110;2022-07-04T08:24:05;1.35;;;1.00;;
34960;SDS011;30789;52.030;7.110;2022-07-04T08:26:34;3.38;;;1.08;;
34960;SDS011;30789;52.030;7.110;2022-07-04T08:29:00;4.63;;;1.30;;
34960;SDS011;30789;52.030;7.110;2022-07-04T08:31:27;3.22;;;1.05;;
34960;SDS011;30789;52.030;7.110;2022-07-04T08:33:53;2.22;;;1.00;;
34960;SDS011;30789;52.030;7.110;2022-07-04T08:36:20;3.15;;;1.38;;
34960;SDS011;30789;52.030;7.110;2022-07-04T08:38:46;1.42;;;0.90;;
34960;SDS011;30789;52.030;7.110;2022-07-04T08:41:15;2.08;;;1.00;;
34960;SDS011;30789;52.030;7.110;2022-07-04T08:43:43;1.38;;;1.20;;
34960;SDS011;30789;52.030;7.110;2022-07-04T08:46:12;4.13;;;1.17;;
34960;SDS011;30789;52.030;7.110;2022-07-04T08:48:42;1.27;;;0.90;;
34960;SDS011;30789;52.030;7.110;2022-07-04T08:51:15;3.05;;;1.20;;
34960;SDS011;30789;52.030;7.110;2022-07-04T08:53:43;1.77;;;0.98;;
34960;SDS011;30789;52.030;7.110;2022-07-04T08:56:16;2.65;;;1.20;;
34960;SDS011;30789;52.030;7.110;2022-07-04T08:59:02;0.95;;;0.73;;
34960;SDS011;30789;52.030;7.110;2022-07-04T09:01:29;2.20;;;0.90;;
34960;SDS011;30789;52.030;7.110;2022-07-04T09:03:56;1.08;;;0.60;;
34960;SDS011;30789;52.030;7.110;2022-07-04T09:06:24;2.47;;;0.82;;
34960;SDS011;30789;52.030;7.110;2022-07-04T09:08:51;2.80;;;0.82;;
34960;SDS011;30789;52.030;7.110;2022-07-04T09:11:19;1.90;;;1.00;;
34960;SDS011;30789;52.030;7.110;2022-07-04T09:13:45;0.95;;;0.50;;
34960;SDS011;30789;52.030;7.110;2022-07-04T09:16:13;1.10;;;0.65;;
34960;SDS011;30789;52.030;7.110;2022-07-04T09:18:40;1.45;;;0.70;;
34960;SDS011;30789;52.030;7.110;2022-07-04T09:21:07;1.33;;;0.60;;
34960;SDS011;30789;52.030;7.110;2022-07-04T09:23:35;3.30;;;0.82;;
34960;SDS011;30789;52.030;7.110;2022-07-04T09:26:06;2.78;;;0.80;;
34960;SDS011;30789;52.030;7.110;2022-07-04T09:28:34;2.45;;;0.75;;
34960;SDS011;30789;52.030;7.110;2022-07-04T09:31:01;1.35;;;0.57;;
34960;SDS011;30789;52.030;7.110;2022-07-04T09:33:44;2.05;;;0.70;;
34960;SDS011;30789;52.030;7.110;2022-07-04T09:36:13;3.05;;;0.60;;
34960;SDS011;30789;52.030;7.110;2022-07-04T09:38:40;3.03;;;0.77;;
34960;SDS011;30789;52.030;7.110;2022-07-04T09:41:07;2.38;;;0.88;;
34960;SDS011;30789;52.030;7.110;2022-07-04T09:44:01;0.95;;;0.68;;
34960;SDS011;30789;52.030;7.110;2022-07-04T09:46:29;2.50;;;0.75;;
34960;SDS011;30789;52.030;7.110;2022-07-04T09:48:57;1.63;;;0.60;;
34960;SDS011;30789;52.030;7.110;2022-07-04T09:51:37;3.88;;;0.73;;
34960;SDS011;30789;52.030;7.110;2022-07-04T09:54:15;3.03;;;0.80;;
34960;SDS011;30789;52.030;7.110;2022-07-04T09:56:44;1.85;;;0.70;;
34960;SDS011;30789;52.030;7.110;2022-07-04T09:59:12;2.13;;;0.68;;
34960;SDS011;30789;52.030;7.110;2022-07-04T10:01:39;1.10;;;0.57;;
34960;SDS011;30789;52.030;7.110;2022-07-04T10:04:07;2.40;;;0.60;;
34960;SDS011;30789;52.030;7.110;2022-07-04T10:06:34;3.33;;;0.80;;
34960;SDS011;30789;52.030;7.110;2022-07-04T10:09:07;0.60;;;0.40;;
34960;SDS011;30789;52.030;7.110;2022-07-04T10:11:38;1.27;;;0.65;;
34960;SDS011;30789;52.030;7.110;2022-07-04T10:14:06;2.88;;;0.52;;
34960;SDS011;30789;52.030;7.110;2022-07-04T10:16:34;2.22;;;1.02;;
34960;SDS011;30789;52.030;7.110;2022-07-04T10:19:02;1.38;;;0.57;;
34960;SDS011;30789;52.030;7.110;2022-07-04T10:21:30;5.07;;;0.80;;
34960;SDS011;30789;52.030;7.110;2022-07-04T10:23:57;1.13;;;0.80;;
34960;SDS011;30789;52.030;7.110;2022-07-04T10:26:24;2.20;;;0.52;;
34960;SDS011;30789;52.030;7.110;2022-07-04T10:28:53;2.30;;;0.63;;
34960;SDS011;30789;52.030;7.110;2022-07-04T10:31:20;2.88;;;0.65;;
34960;SDS011;30789;52.030;7.110;2022-07-04T10:33:49;3.40;;;0.55;;
34960;SDS011;30789;52.030;7.110;2022-07-04T10:36:17;1.70;;;0.80;;
34960;SDS011;30789;52.030;7.110;2022-07-04T10:38:47;2.75;;;0.65;;
34960;SDS011;30789;52.030;7.110;2022-07-04T10:41:16;2.30;;;0.70;;
34960;SDS011;30789;52.030;7.110;2022-07-04T10:43:53;3.55;;;1.20;;
34960;SDS011;30789;52.030;7.110;2022-07-04T10:46:22;2.45;;;0.60;;
34960;SDS011;30789;52.030;7.110;2022-07-04T10:48:50;1.88;;;0.50;;
34960;SDS011;30789;52.030;7.110;2022-07-04T10:51:31;2.20;;;0.57;;
34960;SDS011;30789;52.030;7.110;2022-07-04T10:54:04;2.40;;;0.77;;
34960;SDS011;30789;52.030;7.110;2022-07-04T10:56:39;1.92;;;0.60;;
34960;SDS011;30789;52.030;7.110;2022-07-04T10:59:08;2.05;;;0.57;;
34960;SDS011;30789;52.030;7.110;2022-07-04T11:01:37;1.77;;;0.52;;
34960;SDS011;30789;52.030;7.110;2022-07-04T11:04:03;2.28;;;0.77;;
34960;SDS011;30789;52.030;7.110;2022-07-04T11:06:49;2.88;;;0.73;;
34960;SDS011;30789;52.030;7.110;2022-07-04T11:09:19;3.08;;;0.85;;
34960;SDS011;30789;52.030;7.110;2022-07-04T11:11:47;0.93;;;0.80;;
34960;SDS011;30789;52.030;7.110;2022-07-04T11:14:34;1.35;;;0.70;;
34960;SDS011;30789;52.030;7.110;2022-07-04T11:17:02;1.38;;;0.57;;
34960;SDS011;30789;52.030;7.110;2022-07-04T11:19:28;1.98;;;0.85;;
34960;SDS011;30789;52.030;7.110;2022-07-04T11:21:55;2.38;;;0.65;;
34960;SDS011;30789;52.030;7.110;2022-07-04T11:24:23;1.98;;;0.70;;
34960;SDS011;30789;52.030;7.110;2022-07-04T11:26:51;1.58;;;0.52;;
34960;SDS011;30789;52.030;7.110;2022-07-04T11:29:17;3.28;;;0.88;;
34960;SDS011;30789;52.030;7.110;2022-07-04T11:31:44;1.02;;;0.65;;
34960;SDS011;30789;52.030;7.110;2022-07-04T11:34:14;2.38;;;0.65;;
34960;SDS011;30789;52.030;7.110;2022-07-04T11:36:41;3.42;;;0.73;;
34960;SDS011;30789;52.030;7.110;2022-07-04T11:39:10;2.47;;;0.60;;
34960;SDS011;30789;52.030;7.110;2022-07-04T11:41:40;1.80;;;0.60;;
34960;SDS011;30789;52.030;7.110;2022-07-04T11:44:27;1.27;;;0.50;;
34960;SDS011;30789;52.030;7.110;2022-07-04T11:47:13;4.72;;;1.30;;
34960;SDS011;30789;52.030;7.110;2022-07-04T11:49:45;2.00;;;1.13;;
34960;SDS011;30789;52.030;7.110;2022-07-04T11:52:14;2.65;;;1.10;;
34960;SDS011;30789;52.030;7.110;2022-07-04T11:54:42;1.65;;;0.73;;
34960;SDS011;30789;52.030;7.110;2022-07-04T11:57:12;2.20;;;0.90;;
34960;SDS011;30789;52.030;7.110;2022-07-04T11:59:40;1.73;;;0.70;;
34960;SDS011;30789;52.030;7.110;2022-07-04T12:02:11;2.50;;;0.70;;
34960;SDS011;30789;52.030;7.110;2022-07-04T12:04:38;3.00;;;0.90;;
34960;SDS011;30789;52.030;7.110;2022-07-04T12:07:10;1.25;;;0.60;;
34960;SDS011;30789;52.030;7.110;2022-07-04T12:09:37;1.60;;;0.70;;
34960;SDS011;30789;52.030;7.110;2022-07-04T12:12:05;2.95;;;0.90;;
34960;SDS011;30789;52.030;7.110;2022-07-04T12:14:33;1.92;;;0.63;;
34960;SDS011;30789;52.030;7.110;2022-07-04T12:17:10;2.30;;;0.80;;
34960;SDS011;30789;52.030;7.110;2022-07-04T12:19:48;2.13;;;0.82;;
34960;SDS011;30789;52.030;7.110;2022-07-04T12:22:26;2.00;;;0.85;;
34960;SDS011;30789;52.030;7.110;2022-07-04T12:25:00;0.73;;;0.60;;
34960;SDS011;30789;52.030;7.110;2022-07-04T12:27:27;4.70;;;0.80;;
34960;SDS011;30789;52.030;7.110;2022-07-04T12:29:56;2.40;;;0.70;;
34960;SDS011;30789;52.030;7.110;2022-07-04T12:35:31;0.65;;;0.60;;
34960;SDS011;30789;52.030;7.110;2022-07-04T12:38:02;1.48;;;0.60;;
34960;SDS011;30789;52.030;7.110;2022-07-04T12:40:30;2.20;;;0.68;;
34960;SDS011;30789;52.030;7.110;2022-07-04T12:42:57;1.13;;;0.63;;
34960;SDS011;30789;52.030;7.110;2022-07-04T12:45:26;2.40;;;0.80;;
34960;SDS011;30789;52.030;7.110;2022-07-04T12:48:13;1.65;;;0.52;;
34960;SDS011;30789;52.030;7.110;2022-07-04T12:50:40;5.55;;;1.00;;
34960;SDS011;30789;52.030;7.110;2022-07-04T12:53:07;2.97;;;0.75;;
34960;SDS011;30789;52.030;7.110;2022-07-04T12:55:33;2.38;;;1.00;;
34960;SDS011;30789;52.030;7.110;2022-07-04T12:58:03;1.20;;;1.10;;
34960;SDS011;30789;52.030;7.110;2022-07-04T13:00:31;2.28;;;0.77;;
34960;SDS011;30789;52.030;7.110;2022-07-04T13:02:57;3.72;;;0.90;;
34960;SDS011;30789;52.030;7.110;2022-07-04T13:05:24;3.70;;;1.15;;
34960;SDS011;30789;52.030;7.110;2022-07-04T13:07:50;2.60;;;1.13;;
34960;SDS011;30789;52.030;7.110;2022-07-04T13:10:17;2.25;;;1.00;;
34960;SDS011;30789;52.030;7.110;2022-07-04T13:12:44;3.08;;;1.25;;
34960;SDS011;30789;52.030;7.110;2022-07-04T13:15:10;3.53;;;1.05;;
34960;SDS011;30789;52.030;7.110;2022-07-04T13:17:38;1.83;;;0.98;;
34960;SDS011;30789;52.030;7.110;2022-07-04T13:20:05;4.63;;;1.00;;
34960;SDS011;30789;52.030;7.110;2022-07-04T13:22:33;1.38;;;1.20;;
34960;SDS011;30789;52.030;7.110;2022-07-04T13:24:59;4.35;;;1.33;;
34960;SDS011;30789;52.030;7.110;2022-07-04T13:27:28;2.47;;;1.30;;
34960;SDS011;30789;52.030;7.110;2022-07-04T13:29:56;6.03;;;1.48;;
34960;SDS011;30789;52.030;7.110;2022-07-04T13:32:22;1.70;;;1.20;;
34960;SDS011;30789;52.030;7.110;2022-07-04T13:34:50;3.60;;;1.25;;
34960;SDS011;30789;52.030;7.110;2022-07-04T13:37:16;2.45;;;1.35;;
34960;SDS011;30789;52.030;7.110;2022-07-04T13:39:43;4.28;;;1.40;;
34960;SDS011;30789;52.030;7.110;2022-07-04T13:42:10;3.03;;;1.20;;
34960;SDS011;30789;52.030;7.110;2022-07-04T13:44:38;3.47;;;1.10;;
34960;SDS011;30789;52.030;7.110;2022-07-04T13:47:04;4.40;;;1.10;;
34960;SDS011;30789;52.030;7.110;2022-07-04T13:49:31;1.70;;;0.80;;
34960;SDS011;30789;52.030;7.110;2022-07-04T13:51:59;3.08;;;1.27;;
34960;SDS011;30789;52.030;7.110;2022-07-04T13:54:25;5.30;;;1.10;;
34960;SDS011;30789;52.030;7.110;2022-07-04T13:56:52;1.63;;;0.93;;
34960;SDS011;30789;52.030;7.110;2022-07-04T13:59:18;2.72;;;1.42;;
34960;SDS011;30789;52.030;7.110;2022-07-04T14:01:45;2.63;;;1.30;;
34960;SDS011;30789;52.030;7.110;2022-07-04T14:04:12;4.10;;;1.15;;
34960;SDS011;30789;52.030;7.110;2022-07-04T14:06:39;2.47;;;1.20;;
34960;SDS011;30789;52.030;7.110;2022-07-04T14:09:06;2.33;;;0.80;;
34960;SDS011;30789;52.030;7.110;2022-07-04T14:11:33;1.35;;;0.80;;
34960;SDS011;30789;52.030;7.110;2022-07-04T14:13:59;3.60;;;1.20;;
34960;SDS011;30789;52.030;7.110;2022-07-04T14:16:26;2.25;;;1.10;;
34960;SDS011;30789;52.030;7.110;2022-07-04T14:18:53;2.85;;;0.90;;
34960;SDS011;30789;52.030;7.110;2022-07-04T14:21:19;5.38;;;1.10;;
34960;SDS011;30789;52.030;7.110;2022-07-04T14:23:45;1.70;;;1.00;;
34960;SDS011;30789;52.030;7.110;2022-07-04T14:26:15;2.55;;;1.20;;
34960;SDS011;30789;52.030;7.110;2022-07-04T14:28:44;4.67;;;1.30;;
34960;SDS011;30789;52.030;7.110;2022-07-04T14:31:11;1.90;;;1.23;;
34960;SDS011;30789;52.030;7.110;2022-07-04T14:33:38;2.00;;;1.10;;
34960;SDS011;30789;52.030;7.110;2022-07-04T14:36:05;2.28;;;1.20;;
34960;SDS011;30789;52.030;7.110;2022-07-04T14:38:32;2.83;;;1.05;;
34960;SDS011;30789;52.030;7.110;2022-07-04T14:40:59;6.53;;;1.35;;
34960;SDS011;30789;52.030;7.110;2022-07-04T14:43:37;3.28;;;1.40;;
34960;SDS011;30789;52.030;7.110;2022-07-04T14:46:04;1.97;;;1.57;;
34960;SDS011;30789;52.030;7.110;2022-07-04T14:48:31;4.38;;;1.30;;
34960;SDS011;30789;52.030;7.110;2022-07-04T14:50:58;3.22;;;1.20;;
34960;SDS011;30789;52.030;7.110;2022-07-04T14:53:24;2.45;;;0.90;;
34960;SDS011;30789;52.030;7.110;2022-07-04T14:55:51;3.58;;;1.30;;